Time;durP1;ratioP1;P1;durP2;ratioP2;P2;SDS_P1;SDS_P2;PMS_P1;PMS_P2;Temp;Humidity;BMP_temperature;BMP_pressure;BME280_temperature;BME280_humidity;BME280_pressure;Samples;Min_cycle;Max_cycle;Signal;HPM_P1;HPM_P2
2023/08/20 00:01:14;;;;;;;7.68;6.10;;;;;;;23.32;49.89;95105.50;5076083;28;20185;-67
2023/08/20 00:03:43;;;;;;;8.18;6.43;;;;;;;23.30;49.79;95105.13;5075646;28;20201;-67
2023/08/20 00:06:10;;;;;;;6.80;6.10;;;;;;;23.28;49.95;95101.97;5058400;28;20232;-67
2023/08/20 00:08:39;;;;;;;6.55;5.95;;;;;;;23.26;50.06;95099.56;5075778;28;20263;-67
2023/08/20 00:11:13;;;;;;;8.13;6.82;;;;;;;23.26;50.23;95101.59;5058255;28;20205;-67
2023/08/20 00:13:41;;;;;;;6.38;5.82;;;;;;;23.23;49.99;95106.06;5075827;28;20185;-66
2023/08/20 00:16:11;;;;;;;7.00;6.40;;;;;;;23.24;49.77;95093.59;5075757;28;20189;-66
2023/08/20 00:18:39;;;;;;;7.40;6.78;;;;;;;23.25;49.91;95097.22;5058139;28;20219;-66
2023/08/20 00:21:08;;;;;;;7.03;6.35;;;;;;;23.25;50.47;95097.22;5075379;28;20489;-66
2023/08/20 00:23:36;;;;;;;7.55;6.45;;;;;;;23.24;49.93;95095.59;5075480;28;20244;-65
2023/08/20 00:26:03;;;;;;;6.45;5.90;;;;;;;23.21;50.16;95099.31;5058541;28;20228;-65
2023/08/20 00:28:34;;;;;;;7.43;6.82;;;;;;;23.23;50.01;95106.06;5058153;28;20217;-66
2023/08/20 00:31:02;;;;;;;6.70;6.20;;;;;;;23.24;50.12;95096.41;5057924;28;20672;-66
2023/08/20 00:33:30;;;;;;;7.43;6.63;;;;;;;23.27;49.98;95097.56;5075502;28;20200;-66
2023/08/20 00:35:58;;;;;;;7.35;6.75;;;;;;;23.26;49.87;95101.59;5075408;28;20250;-66
2023/08/20 00:38:26;;;;;;;6.20;5.70;;;;;;;23.25;49.94;95094.41;5075263;28;20597;-67
2023/08/20 00:40:54;;;;;;;6.93;6.32;;;;;;;23.26;49.53;95101.59;5057787;28;20201;-67
2023/08/20 00:43:22;;;;;;;6.85;6.18;;;;;;;23.23;50.23;95097.63;5075284;28;20209;-66
2023/08/20 00:45:55;;;;;;;7.45;6.53;;;;;;;23.26;49.79;95098.78;5075349;28;20185;-66
2023/08/20 00:48:25;;;;;;;6.50;6.00;;;;;;;23.27;49.91;95101.16;5075300;28;20189;-66
2023/08/20 00:50:53;;;;;;;7.45;6.70;;;;;;;23.29;49.72;95103.56;5057751;28;20262;-66
2023/08/20 00:53:21;;;;;;;7.88;7.13;;;;;;;23.27;49.80;95097.56;5057601;28;20208;-66
2023/08/20 00:55:49;;;;;;;7.50;6.90;;;;;;;23.27;49.85;95098.34;5075162;28;20188;-66
2023/08/20 00:58:18;;;;;;;7.55;6.85;;;;;;;23.27;49.59;95100.38;5075348;28;20193;-66
2023/08/20 01:00:46;;;;;;;7.80;7.20;;;;;;;23.26;49.57;95091.13;5075334;28;20205;-66
2023/08/20 01:03:14;;;;;;;7.28;6.57;;;;;;;23.24;49.83;95087.97;5074818;28;20201;-66
2023/08/20 01:05:47;;;;;;;7.35;6.75;;;;;;;23.23;49.77;95097.63;5057362;28;20192;-66
2023/08/20 01:08:28;;;;;;;7.82;7.22;;;;;;;23.24;49.82;95102.03;5074963;28;20185;-66
2023/08/20 01:10:59;;;;;;;7.63;6.93;;;;;;;23.25;49.99;95102.84;5074830;28;20654;-66
2023/08/20 01:13:27;;;;;;;7.78;7.03;;;;;;;23.22;49.99;95090.41;5057439;28;20196;-66
2023/08/20 01:15:55;;;;;;;7.40;6.78;;;;;;;23.22;49.83;95098.06;5058047;28;20204;-66
2023/08/20 01:18:24;;;;;;;7.70;7.10;;;;;;;23.22;49.96;95095.25;5057341;28;20215;-66
2023/08/20 01:20:56;;;;;;;7.70;7.05;;;;;;;23.22;50.13;95098.06;5078882;28;20242;-66
2023/08/20 01:23:59;;;;;;;7.70;7.00;;;;;;;23.20;49.84;95092.06;5078145;28;20213;-66
2023/08/20 01:26:37;;;;;;;6.75;6.22;;;;;;;23.19;50.04;95096.91;4978356;28;20216;-66
2023/08/20 01:29:06;;;;;;;8.25;7.15;;;;;;;23.19;49.88;95088.47;5061183;28;20254;-66
2023/08/20 01:31:34;;;;;;;7.80;7.20;;;;;;;23.20;50.02;95092.06;5077681;28;20204;-65
2023/08/20 01:34:04;;;;;;;8.07;7.28;;;;;;;23.18;49.85;95092.53;5078013;28;20197;-65
2023/08/20 01:36:33;;;;;;;7.80;7.10;;;;;;;23.16;50.02;95082.91;5060953;28;20601;-65
2023/08/20 01:39:00;;;;;;;7.72;7.10;;;;;;;23.13;50.25;95086.59;5078627;28;20232;-65
2023/08/20 01:41:28;;;;;;;8.25;7.53;;;;;;;23.12;50.26;95083.00;5078413;28;20192;-66
2023/08/20 01:43:56;;;;;;;8.20;7.60;;;;;;;23.11;50.18;95083.44;5061654;28;20223;-66
2023/08/20 01:46:28;;;;;;;8.50;7.57;;;;;;;23.09;50.38;95086.69;5078004;28;20235;-66
2023/08/20 01:48:56;;;;;;;8.18;7.35;;;;;;;23.06;50.64;95077.09;5061218;28;20236;-66
2023/08/20 01:51:23;;;;;;;7.60;7.00;;;;;;;23.05;50.62;95072.69;5078291;28;20232;-66
2023/08/20 01:53:51;;;;;;;8.50;7.70;;;;;;;23.06;50.58;95067.88;5060934;28;20219;-66
2023/08/20 01:56:19;;;;;;;7.78;7.07;;;;;;;23.07;50.21;95072.28;5060915;28;20197;-66
2023/08/20 01:58:47;;;;;;;8.90;8.10;;;;;;;23.08;50.30;95075.88;5060617;28;20644;-66
2023/08/20 02:01:14;;;;;;;8.48;7.70;;;;;;;23.07;50.89;95080.72;5078581;28;20193;-66
2023/08/20 02:03:44;;;;;;;8.63;7.90;;;;;;;23.06;50.71;95081.94;5060574;28;20213;-66
2023/08/20 02:06:14;;;;;;;8.88;8.07;;;;;;;23.04;51.53;95076.72;5077909;28;20228;-66
2023/08/20 02:08:41;;;;;;;9.38;8.48;;;;;;;23.01;51.34;95074.00;5060460;28;20205;-66
2023/08/20 02:11:09;;;;;;;8.85;8.05;;;;;;;22.95;51.40;95073.72;5060725;28;20196;-66
2023/08/20 02:13:37;;;;;;;8.95;7.72;;;;;;;22.90;51.54;95071.38;5077722;28;20217;-65
2023/08/20 02:16:06;;;;;;;8.45;7.65;;;;;;;22.88;51.73;95067.44;5078354;28;20197;-65
2023/08/20 02:18:34;;;;;;;8.15;7.28;;;;;;;22.85;51.79;95065.47;5060395;28;20207;-65
2023/08/20 02:21:07;;;;;;;8.10;7.40;;;;;;;22.85;51.91;95068.28;5078010;28;20200;-65
2023/08/20 02:23:38;;;;;;;7.78;7.07;;;;;;;22.84;52.19;95075.94;5060167;28;20220;-65
2023/08/20 02:26:06;;;;;;;8.43;7.35;;;;;;;22.80;52.27;95078.81;5077878;28;20185;-65
2023/08/20 02:28:35;;;;;;;7.18;6.60;;;;;;;22.77;52.79;95076.88;5060659;28;20204;-65
2023/08/20 02:31:08;;;;;;;8.07;7.38;;;;;;;22.76;52.79;95066.81;5060005;28;20193;-66
2023/08/20 02:33:38;;;;;;;8.23;7.63;;;;;;;22.72;52.86;95070.94;5060088;28;20197;-66
2023/08/20 02:36:11;;;;;;;8.52;7.75;;;;;;;22.68;53.54;95065.38;5060182;28;20327;-65
2023/08/20 02:38:39;;;;;;;8.63;7.93;;;;;;;22.63;53.35;95067.91;5056852;28;20241;-66
2023/08/20 02:41:07;;;;;;;8.35;7.65;;;;;;;22.59;53.59;95077.22;5056739;28;20209;-66
2023/08/20 02:43:37;;;;;;;7.97;7.22;;;;;;;22.58;54.02;95078.41;5057077;28;20206;-66
2023/08/20 02:46:05;;;;;;;8.25;7.50;;;;;;;22.54;54.36;95082.53;5057523;28;20194;-66
2023/08/20 02:48:33;;;;;;;8.38;7.63;;;;;;;22.49;54.51;95083.81;5057478;28;20182;-66
2023/08/20 02:51:02;;;;;;;7.70;7.10;;;;;;;22.48;54.30;95095.50;5057179;28;20196;-66
2023/08/20 02:53:35;;;;;;;8.35;7.60;;;;;;;22.46;54.24;95095.13;5057324;28;20182;-65
2023/08/20 02:56:04;;;;;;;8.30;7.60;;;;;;;22.43;54.10;95093.19;5056779;28;20247;-66
2023/08/20 02:58:32;;;;;;;8.40;7.60;;;;;;;22.34;54.10;95093.75;5057311;28;20257;-66
2023/08/20 03:01:00;;;;;;;8.65;7.85;;;;;;;22.32;54.26;95101.78;5057242;28;20270;-65
2023/08/20 03:03:30;;;;;;;8.75;7.53;;;;;;;22.31;54.15;95086.16;5057047;28;20198;-66
2023/08/20 03:05:58;;;;;;;8.40;7.70;;;;;;;22.30;54.51;95105.03;5056283;28;20193;-66
2023/08/20 03:08:29;;;;;;;8.20;7.53;;;;;;;22.24;54.44;95115.19;5056426;28;20542;-66
2023/08/20 03:10:57;;;;;;;8.60;7.90;;;;;;;22.17;54.87;95106.88;5055838;28;20202;-66
2023/08/20 03:13:25;;;;;;;7.90;7.22;;;;;;;22.15;54.57;95105.69;5057021;28;20208;-66
2023/08/20 03:15:53;;;;;;;8.45;7.75;;;;;;;22.09;54.92;95102.56;5057181;28;20197;-66
2023/08/20 03:18:21;;;;;;;8.45;7.65;;;;;;;22.05;55.08;95107.47;5055948;28;20194;-66
2023/08/20 03:20:49;;;;;;;8.10;7.40;;;;;;;22.01;55.35;95104.72;5055877;28;20213;-66
2023/08/20 03:23:17;;;;;;;8.43;7.72;;;;;;;21.96;55.55;95102.38;5056146;28;20182;-66
2023/08/20 03:25:44;;;;;;;8.98;7.95;;;;;;;21.93;55.96;95110.84;5056340;28;20217;-66
2023/08/20 03:28:19;;;;;;;8.60;7.80;;;;;;;21.90;55.90;95103.31;5056799;28;20178;-66
2023/08/20 03:30:47;;;;;;;8.43;7.65;;;;;;;21.89;55.61;95096.88;5055919;28;20201;-66
2023/08/20 03:33:14;;;;;;;8.32;7.53;;;;;;;21.87;55.30;95100.13;5056478;28;20205;-65
2023/08/20 03:35:47;;;;;;;8.85;7.93;;;;;;;21.85;55.33;95096.91;5055630;28;20233;-66
2023/08/20 03:38:14;;;;;;;9.00;8.20;;;;;;;21.87;55.60;95094.50;5055298;28;20213;-66
2023/08/20 03:40:45;;;;;;;7.88;7.15;;;;;;;21.87;55.94;95091.69;5056715;28;20209;-66
2023/08/20 03:43:14;;;;;;;8.95;8.15;;;;;;;21.85;55.98;95096.13;5055833;28;20210;-66
2023/08/20 03:45:40;;;;;;;8.55;7.75;;;;;;;21.82;56.41;95086.56;5038376;28;20267;-65
2023/08/20 03:48:08;;;;;;;8.02;7.43;;;;;;;21.77;56.38;95089.84;5056394;28;20189;-65
2023/08/20 03:50:35;;;;;;;8.18;7.50;;;;;;;21.72;56.70;95086.75;5039001;28;20205;-66
2023/08/20 03:53:02;;;;;;;9.30;7.70;;;;;;;21.66;57.38;95091.22;5038803;28;20193;-66
2023/08/20 03:55:30;;;;;;;9.18;8.27;;;;;;;21.59;57.54;95080.91;5038514;28;20209;-66
2023/08/20 03:57:58;;;;;;;9.23;8.45;;;;;;;21.57;57.63;95081.34;5056172;28;20193;-66
2023/08/20 04:00:28;;;;;;;8.65;7.63;;;;;;;21.59;57.27;95089.31;5038588;28;20197;-67
2023/08/20 04:02:54;;;;;;;8.55;7.85;;;;;;;21.59;57.52;95078.09;5055974;28;20186;-67
2023/08/20 04:05:25;;;;;;;8.82;7.88;;;;;;;21.59;57.59;95087.31;5038049;28;20209;-67
2023/08/20 04:07:52;;;;;;;9.65;8.13;;;;;;;21.57;58.12;95084.16;5055744;28;20221;-67
2023/08/20 04:10:22;;;;;;;8.20;7.45;;;;;;;21.54;57.11;95076.56;5056000;28;20174;-67
2023/08/20 04:12:53;;;;;;;8.73;7.57;;;;;;;21.58;57.30;95080.13;5039059;28;20247;-67
2023/08/20 04:15:21;;;;;;;8.82;7.53;;;;;;;21.61;57.29;95079.28;5038415;28;20213;-67
2023/08/20 04:17:50;;;;;;;9.82;7.88;;;;;;;21.65;57.84;95081.22;5038301;28;20679;-67
2023/08/20 04:20:18;;;;;;;8.90;8.00;;;;;;;21.66;58.01;95088.44;5038745;28;20198;-67
2023/08/20 04:22:46;;;;;;;9.73;8.32;;;;;;;21.64;58.33;95088.84;5055822;28;20201;-67
2023/08/20 04:25:14;;;;;;;9.40;8.57;;;;;;;21.66;57.76;95088.44;5055296;28;20209;-67
2023/08/20 04:27:42;;;;;;;8.93;8.13;;;;;;;21.66;57.75;95083.59;5037764;28;20201;-66
2023/08/20 04:30:14;;;;;;;9.38;8.15;;;;;;;21.66;57.61;95089.22;5037774;28;20197;-66
2023/08/20 04:32:41;;;;;;;9.90;9.00;;;;;;;21.65;57.56;95086.84;5055735;28;20200;-66
2023/08/20 04:35:14;;;;;;;9.68;8.80;;;;;;;21.65;57.20;95093.25;5038090;28;20193;-66
2023/08/20 04:37:43;;;;;;;8.73;7.97;;;;;;;21.66;57.56;95091.22;5037479;28;20198;-66
2023/08/20 04:40:20;;;;;;;9.48;8.57;;;;;;;21.62;57.85;95097.69;5050689;28;20241;-66
2023/08/20 04:42:48;;;;;;;9.38;8.55;;;;;;;21.66;57.76;95094.84;5054458;28;20190;-66
2023/08/20 04:45:19;;;;;;;10.68;8.90;;;;;;;21.70;58.31;95098.38;5054157;28;20233;-66
2023/08/20 04:47:47;;;;;;;9.82;8.10;;;;;;;21.69;57.88;95096.78;5055263;28;20280;-66
2023/08/20 04:50:20;;;;;;;9.32;8.52;;;;;;;21.71;57.46;95090.75;5054380;28;20190;-66
2023/08/20 04:52:48;;;;;;;9.13;8.32;;;;;;;21.72;57.24;95090.34;5055323;28;20190;-66
2023/08/20 04:55:15;;;;;;;8.70;8.00;;;;;;;21.76;56.86;95093.09;5053566;28;20205;-66
2023/08/20 04:57:45;;;;;;;9.50;8.60;;;;;;;21.81;57.06;95089.78;5054110;28;20201;-67
2023/08/20 05:00:13;;;;;;;8.93;8.00;;;;;;;21.85;56.96;95093.31;5054270;28;20605;-67
2023/08/20 05:02:42;;;;;;;10.27;9.38;;;;;;;21.92;57.00;95092.41;5053866;28;20201;-67
2023/08/20 05:05:12;;;;;;;8.35;7.72;;;;;;;21.97;57.43;95101.16;5053886;28;20574;-68
2023/08/20 05:07:48;;;;;;;8.95;8.25;;;;;;;21.96;57.62;95095.97;5055062;28;20528;-67
2023/08/20 05:10:16;;;;;;;9.30;8.50;;;;;;;21.97;57.66;95095.56;5055017;28;20197;-67
2023/08/20 05:12:44;;;;;;;9.50;8.50;;;;;;;22.00;57.20;95102.31;5054306;28;20209;-67
2023/08/20 05:15:12;;;;;;;9.18;8.38;;;;;;;22.04;57.35;95097.44;5055111;28;20178;-67
2023/08/20 05:17:39;;;;;;;9.02;8.32;;;;;;;22.07;57.25;95096.56;5053666;28;20216;-67
2023/08/20 05:20:10;;;;;;;9.02;7.88;;;;;;;22.08;57.43;95104.59;5055168;28;20182;-67
2023/08/20 05:22:38;;;;;;;8.48;7.78;;;;;;;22.16;57.32;95105.28;5053836;28;20195;-67
2023/08/20 05:25:12;;;;;;;8.50;7.65;;;;;;;22.19;57.20;95104.44;5054628;28;20673;-68
2023/08/20 05:27:39;;;;;;;8.60;7.80;;;;;;;22.21;57.16;95107.59;5054768;28;20189;-68
2023/08/20 05:30:11;;;;;;;8.65;7.85;;;;;;;22.24;57.46;95108.78;5053926;28;20676;-68
2023/08/20 05:32:41;;;;;;;9.55;8.65;;;;;;;22.23;57.66;95107.97;5054210;28;20213;-68
2023/08/20 05:35:08;;;;;;;8.88;8.13;;;;;;;22.15;58.00;95108.50;5054621;28;20228;-68
2023/08/20 05:37:35;;;;;;;8.80;8.10;;;;;;;22.07;58.27;95113.44;5053646;28;20201;-67
2023/08/20 05:40:08;;;;;;;8.90;8.15;;;;;;;21.99;58.48;95107.13;5069036;28;20252;-67
2023/08/20 05:42:42;;;;;;;9.07;8.18;;;;;;;21.93;58.83;95108.84;5074765;28;20190;-67
2023/08/20 05:45:10;;;;;;;8.73;7.93;;;;;;;21.91;59.29;95108.47;5074522;28;20205;-67
2023/08/20 05:47:38;;;;;;;8.93;8.13;;;;;;;21.92;59.28;95112.06;5073769;28;20201;-68
2023/08/20 05:50:09;;;;;;;8.60;7.80;;;;;;;21.91;59.83;95114.09;5074701;28;20186;-67
2023/08/20 05:52:38;;;;;;;8.60;7.80;;;;;;;21.96;59.64;95112.81;5057547;28;20186;-67
2023/08/20 05:55:06;;;;;;;8.85;7.95;;;;;;;22.02;59.82;95111.13;5074719;28;20189;-68
2023/08/20 05:57:42;;;;;;;9.38;8.43;;;;;;;22.07;60.19;95114.22;5057008;28;20193;-67
2023/08/20 06:00:16;;;;;;;8.80;8.10;;;;;;;22.16;59.90;95113.72;5057126;28;20197;-67
2023/08/20 06:02:44;;;;;;;9.13;8.30;;;;;;;22.26;59.57;95109.13;5056990;28;20567;-67
2023/08/20 06:05:15;;;;;;;8.38;7.68;;;;;;;22.35;59.79;95109.38;5074849;28;20236;-68
2023/08/20 06:07:43;;;;;;;8.70;7.90;;;;;;;22.44;59.34;95106.81;5060322;28;20258;-68
2023/08/20 06:10:19;;;;;;;10.38;8.23;;;;;;;22.50;59.46;95110.69;5078240;28;20246;-68
2023/08/20 06:12:49;;;;;;;8.43;7.63;;;;;;;22.53;59.25;95111.88;5078110;28;20243;-68
2023/08/20 06:15:25;;;;;;;11.57;10.38;;;;;;;22.53;59.13;95109.84;5060625;28;20228;-68
2023/08/20 06:17:54;;;;;;;9.13;8.23;;;;;;;22.56;58.78;95119.44;5077575;28;20200;-67
2023/08/20 06:20:22;;;;;;;9.27;8.35;;;;;;;22.59;58.89;95110.94;5078076;28;20192;-67
2023/08/20 06:22:50;;;;;;;9.02;8.23;;;;;;;22.70;58.38;95118.38;5060610;28;20264;-66
2023/08/20 06:25:21;;;;;;;9.15;8.35;;;;;;;22.76;58.18;95113.81;5060062;28;20212;-66
2023/08/20 06:27:51;;;;;;;9.82;8.90;;;;;;;22.88;57.78;95120.84;5077624;28;20239;-66
2023/08/20 06:30:23;;;;;;;10.55;9.02;;;;;;;22.98;57.10;95117.03;5077899;28;20197;-66
2023/08/20 06:32:54;;;;;;;9.85;9.05;;;;;;;23.05;56.88;95106.44;5077901;28;20189;-66
2023/08/20 06:35:25;;;;;;;10.52;9.52;;;;;;;23.11;57.07;95112.38;5077686;28;20285;-66
2023/08/20 06:37:54;;;;;;;12.55;11.32;;;;;;;23.17;56.69;95112.66;5077343;28;20223;-66
2023/08/20 06:40:24;;;;;;;9.98;9.18;;;;;;;23.22;56.19;95114.94;5076727;28;20706;-66
2023/08/20 06:42:53;;;;;;;9.93;9.15;;;;;;;23.28;56.27;95116.81;5060079;28;20197;-66
2023/08/20 06:45:24;;;;;;;10.00;9.13;;;;;;;23.36;55.82;95116.69;5060027;28;20652;-66
2023/08/20 06:47:55;;;;;;;9.55;8.75;;;;;;;23.39;55.95;95110.97;5059582;28;20199;-66
2023/08/20 06:50:24;;;;;;;9.25;8.30;;;;;;;23.41;55.93;95119.75;5077008;28;20212;-66
2023/08/20 06:52:52;;;;;;;9.88;8.48;;;;;;;23.41;55.91;95110.53;5060070;28;20271;-66
2023/08/20 06:55:21;;;;;;;9.40;8.50;;;;;;;23.44;55.91;95118.09;5074962;28;20512;-66
2023/08/20 06:57:51;;;;;;;9.25;8.45;;;;;;;23.51;55.43;95113.09;5077022;28;20189;-66
2023/08/20 07:00:19;;;;;;;10.00;7.80;;;;;;;23.58;54.26;95111.38;5059498;28;20212;-66
2023/08/20 07:02:52;;;;;;;8.77;7.97;;;;;;;23.59;54.54;95116.56;5077312;28;20205;-66
2023/08/20 07:05:20;;;;;;;9.15;8.25;;;;;;;23.62;54.68;95118.50;5059588;28;20233;-66
2023/08/20 07:07:51;;;;;;;8.35;7.65;;;;;;;23.67;54.59;95118.00;5076877;28;20185;-66
2023/08/20 07:10:21;;;;;;;8.60;7.80;;;;;;;23.73;53.81;95116.25;5076788;28;20598;-66
2023/08/20 07:12:48;;;;;;;8.02;7.28;;;;;;;23.80;53.37;95118.13;5076816;28;20209;-66
2023/08/20 07:15:15;;;;;;;8.30;7.68;;;;;;;23.83;53.85;95119.28;5076982;28;20185;-66
2023/08/20 07:17:42;;;;;;;8.32;7.55;;;;;;;23.86;53.92;95118.41;5058275;28;20208;-66
2023/08/20 07:20:15;;;;;;;7.63;7.03;;;;;;;23.90;53.05;95119.91;5059193;28;20246;-67
2023/08/20 07:22:43;;;;;;;7.90;7.05;;;;;;;23.90;52.54;95114.25;5059100;28;20205;-66
2023/08/20 07:25:11;;;;;;;7.15;6.57;;;;;;;23.94;51.81;95108.53;5059114;28;20212;-67
2023/08/20 07:27:39;;;;;;;7.53;6.82;;;;;;;23.94;52.14;95114.97;5075805;28;20209;-66
2023/08/20 07:30:08;;;;;;;7.22;6.63;;;;;;;23.99;51.66;95117.25;5059460;28;20656;-66
2023/08/20 07:32:36;;;;;;;7.05;6.53;;;;;;;24.01;51.34;95111.97;5076371;28;20593;-66
2023/08/20 07:35:10;;;;;;;7.35;6.75;;;;;;;24.08;51.40;95115.88;5059192;28;20197;-66
2023/08/20 07:37:40;;;;;;;6.95;6.40;;;;;;;24.17;50.61;95116.81;5058842;28;20205;-66
2023/08/20 07:40:11;;;;;;;7.35;6.70;;;;;;;24.24;50.59;95113.81;5076518;28;20236;-66
2023/08/20 07:42:43;;;;;;;7.20;6.60;;;;;;;24.32;50.49;95117.25;5059122;28;20189;-66
2023/08/20 07:45:11;;;;;;;7.72;7.03;;;;;;;24.35;50.48;95115.56;5058912;28;20219;-66
2023/08/20 07:47:43;;;;;;;7.55;6.85;;;;;;;24.41;50.17;95117.47;5076386;28;20192;-66
2023/08/20 07:50:13;;;;;;;6.95;6.35;;;;;;;24.44;50.31;95110.16;5058933;28;20201;-66
2023/08/20 07:52:43;;;;;;;6.93;6.43;;;;;;;24.48;49.95;95114.47;5076350;28;20182;-66
2023/08/20 07:55:11;;;;;;;7.22;6.53;;;;;;;24.57;49.49;95116.63;5076169;28;20201;-66
2023/08/20 07:57:40;;;;;;;7.40;6.40;;;;;;;24.62;49.53;95115.28;5058492;28;20189;-66
2023/08/20 08:00:09;;;;;;;6.85;6.15;;;;;;;24.65;49.38;95118.03;5058500;28;20197;-66
2023/08/20 08:02:39;;;;;;;6.75;6.13;;;;;;;24.72;48.90;95125.50;5075289;28;20201;-66
2023/08/20 08:05:09;;;;;;;6.53;6.03;;;;;;;24.84;48.56;95110.69;5075643;28;20609;-66
2023/08/20 08:07:38;;;;;;;6.90;6.22;;;;;;;24.90;48.95;95119.38;5075865;28;20200;-66
2023/08/20 08:10:09;;;;;;;6.90;6.25;;;;;;;24.93;48.53;95113.63;5058711;28;20208;-66
2023/08/20 08:12:40;;;;;;;7.18;6.47;;;;;;;25.06;48.08;95112.91;5075577;28;20193;-66
2023/08/20 08:15:09;;;;;;;6.63;5.97;;;;;;;25.17;47.88;95107.78;5058395;28;20200;-66
2023/08/20 08:17:40;;;;;;;7.47;6.40;;;;;;;25.28;47.64;95108.25;5057878;28;20200;-66
2023/08/20 08:20:10;;;;;;;6.57;5.97;;;;;;;25.34;47.73;95100.78;5058446;28;20197;-66
2023/08/20 08:22:39;;;;;;;7.30;6.60;;;;;;;25.39;47.26;95114.38;5057953;28;20197;-66
2023/08/20 08:25:10;;;;;;;7.03;6.47;;;;;;;25.49;47.35;95115.31;5074405;28;20205;-66
2023/08/20 08:27:40;;;;;;;7.78;5.95;;;;;;;25.59;46.28;95111.34;5075517;28;20220;-66
2023/08/20 08:30:09;;;;;;;7.05;6.45;;;;;;;25.67;46.31;95117.56;5058029;28;20499;-66
2023/08/20 08:32:36;;;;;;;7.93;6.25;;;;;;;25.75;45.96;95116.13;5057990;28;20185;-70
2023/08/20 08:35:08;;;;;;;6.60;6.10;;;;;;;25.83;45.39;95111.84;5075517;28;20197;-66
2023/08/20 08:37:36;;;;;;;7.05;6.35;;;;;;;25.86;45.47;95115.81;5071950;28;20679;-66
2023/08/20 08:40:06;;;;;;;6.85;6.28;;;;;;;25.93;44.47;95109.94;5054103;28;20237;-66
2023/08/20 08:42:35;;;;;;;7.43;6.68;;;;;;;26.06;44.05;95107.88;5055377;28;20209;-66
2023/08/20 08:45:04;;;;;;;6.55;6.03;;;;;;;26.06;44.34;95107.88;5055295;28;20210;-66
2023/08/20 08:47:33;;;;;;;7.05;6.43;;;;;;;26.20;43.67;95112.28;5054244;28;20220;-66
2023/08/20 08:50:02;;;;;;;6.72;6.13;;;;;;;26.27;43.73;95112.03;5055008;28;20196;-66
2023/08/20 08:52:31;;;;;;;7.40;6.72;;;;;;;26.36;43.87;95111.34;5053991;28;20212;-66
2023/08/20 08:55:01;;;;;;;6.70;6.10;;;;;;;26.37;43.72;95115.78;5055308;28;20247;-66
2023/08/20 08:57:29;;;;;;;7.20;6.15;;;;;;;26.41;43.55;95111.56;5055159;28;20531;-66
2023/08/20 09:00:02;;;;;;;7.20;6.47;;;;;;;26.57;41.80;95115.53;5054671;28;20201;-66
2023/08/20 09:02:33;;;;;;;8.65;6.95;;;;;;;26.65;41.31;95111.19;5055154;28;20292;-66
2023/08/20 09:05:01;;;;;;;8.07;7.28;;;;;;;26.71;40.90;95112.19;5054729;28;20281;-66
2023/08/20 09:07:29;;;;;;;19.42;15.60;;;;;;;26.71;42.43;95117.06;5053716;28;20217;-66
2023/08/20 09:10:02;;;;;;;12.07;10.43;;;;;;;26.89;40.53;95103.09;5054762;28;20230;-66
2023/08/20 09:12:35;;;;;;;15.85;14.23;;;;;;;26.91;41.32;95111.91;5054540;28;20502;-66
2023/08/20 09:15:14;;;;;;;8.80;8.00;;;;;;;26.99;40.67;95106.78;5055043;28;20257;-66
2023/08/20 09:17:44;;;;;;;8.27;7.57;;;;;;;27.05;40.30;95110.59;5054087;28;20186;-66
2023/08/20 09:20:12;;;;;;;7.97;7.18;;;;;;;27.05;39.20;95104.94;5054540;28;20194;-66
2023/08/20 09:22:40;;;;;;;7.43;6.68;;;;;;;27.12;38.64;95110.34;5055017;28;20206;-66
2023/08/20 09:25:09;;;;;;;7.35;6.65;;;;;;;27.15;39.77;95103.00;5054905;28;20198;-66
2023/08/20 09:27:41;;;;;;;6.43;5.93;;;;;;;27.10;38.79;95107.97;5054362;28;20235;-66
2023/08/20 09:30:21;;;;;;;5.88;5.22;;;;;;;27.22;37.58;95108.41;5054176;28;20194;-66
2023/08/20 09:33:05;;;;;;;5.93;5.30;;;;;;;27.34;38.31;95101.88;5054186;28;20229;-66
2023/08/20 09:35:32;;;;;;;6.63;5.65;;;;;;;27.42;37.41;95103.19;5053730;28;20245;-66
2023/08/20 09:38:06;;;;;;;5.82;5.25;;;;;;;27.44;38.42;95109.16;5071078;28;20186;-66
2023/08/20 09:40:35;;;;;;;5.45;4.95;;;;;;;27.45;37.80;95112.78;5055388;28;20256;-66
2023/08/20 09:43:03;;;;;;;6.00;5.50;;;;;;;27.54;37.51;95102.31;5058108;28;20204;-66
2023/08/20 09:45:39;;;;;;;5.75;5.25;;;;;;;27.65;37.81;95099.06;5058666;28;20178;-66
2023/08/20 09:48:13;;;;;;;6.00;5.40;;;;;;;27.74;37.96;95099.13;5057894;28;20291;-66
2023/08/20 09:50:48;;;;;;;5.32;4.90;;;;;;;27.86;37.01;95093.84;5057911;28;20628;-66
2023/08/20 09:53:26;;;;;;;5.63;5.20;;;;;;;27.96;37.58;95084.94;5074467;28;20194;-66
2023/08/20 09:55:57;;;;;;;5.47;4.97;;;;;;;28.00;36.18;95093.28;5057266;28;20675;-66
2023/08/20 09:58:29;;;;;;;7.70;5.65;;;;;;;28.01;37.68;95084.31;5057771;28;20193;-66
2023/08/20 10:01:00;;;;;;;5.22;4.75;;;;;;;28.08;36.15;95086.84;5074189;28;20186;-66
2023/08/20 10:03:27;;;;;;;5.47;4.95;;;;;;;28.08;37.10;95081.19;5057439;28;20189;-66
2023/08/20 10:05:55;;;;;;;4.68;4.22;;;;;;;28.14;35.67;95086.22;5057050;28;20233;-65
2023/08/20 10:08:25;;;;;;;5.40;4.93;;;;;;;28.15;35.02;95094.28;5058328;28;20197;-66
2023/08/20 10:10:52;;;;;;;4.88;4.40;;;;;;;28.17;34.51;95094.59;5057989;28;20197;-66
2023/08/20 10:13:19;;;;;;;6.07;4.45;;;;;;;28.18;35.20;95086.84;5057510;28;20186;-66
2023/08/20 10:15:50;;;;;;;6.93;4.70;;;;;;;28.21;34.98;95092.38;5057121;28;20201;-66
2023/08/20 10:18:29;;;;;;;5.18;4.57;;;;;;;28.06;36.24;95091.41;5057021;28;20194;-66
2023/08/20 10:20:59;;;;;;;4.82;4.28;;;;;;;27.92;35.18;95094.81;5057910;28;20247;-66
2023/08/20 10:23:26;;;;;;;4.85;4.03;;;;;;;28.07;35.62;95095.84;5057703;28;20202;-66
2023/08/20 10:25:54;;;;;;;4.43;4.13;;;;;;;28.09;34.75;95093.31;5057603;28;20633;-66
2023/08/20 10:28:23;;;;;;;4.85;4.28;;;;;;;28.08;35.27;95089.69;5058157;28;20182;-66
2023/08/20 10:31:08;;;;;;;4.78;4.40;;;;;;;28.18;35.31;95087.69;5057726;28;20182;-66
2023/08/20 10:33:42;;;;;;;5.40;3.92;;;;;;;28.21;35.82;95083.88;5056911;28;20229;-66
2023/08/20 10:36:14;;;;;;;4.10;3.72;;;;;;;28.37;34.28;95084.88;5057446;28;20287;-66
2023/08/20 10:38:42;;;;;;;4.45;4.05;;;;;;;28.44;34.11;95081.78;5057344;28;20617;-66
2023/08/20 10:41:11;;;;;;;4.43;4.03;;;;;;;28.46;33.82;95073.56;5059894;28;20197;-66
2023/08/20 10:43:39;;;;;;;5.57;3.95;;;;;;;28.53;34.17;95067.59;5059912;28;20578;-66
2023/08/20 10:46:17;;;;;;;4.70;4.30;;;;;;;28.59;32.98;95077.06;5059573;28;20239;-66
2023/08/20 10:48:55;;;;;;;4.38;3.97;;;;;;;28.83;33.29;95067.94;5060196;28;20651;-66
2023/08/20 10:51:32;;;;;;;6.20;4.90;;;;;;;28.83;33.79;95065.09;5075235;28;20197;-66
2023/08/20 10:54:10;;;;;;;4.13;3.83;;;;;;;28.82;34.53;95057.84;5059570;28;20667;-66
2023/08/20 10:56:46;;;;;;;4.45;4.15;;;;;;;28.71;33.74;95058.31;5059776;28;20232;-66
2023/08/20 10:59:17;;;;;;;4.78;4.35;;;;;;;28.82;33.99;95067.13;5077529;28;20203;-66
2023/08/20 11:01:48;;;;;;;4.82;4.35;;;;;;;28.82;34.38;95055.78;5059416;28;20201;-66
2023/08/20 11:04:27;;;;;;;5.32;4.10;;;;;;;28.88;34.33;95053.13;5059716;28;20197;-65
2023/08/20 11:06:57;;;;;;;4.60;4.20;;;;;;;29.03;34.26;95051.25;5059292;28;20274;-66
2023/08/20 11:09:25;;;;;;;4.05;3.75;;;;;;;29.11;33.04;95052.50;5059510;28;20208;-66
2023/08/20 11:11:52;;;;;;;4.40;4.10;;;;;;;29.13;32.97;95052.03;5060142;28;20197;-66
2023/08/20 11:14:23;;;;;;;3.95;3.67;;;;;;;29.18;32.85;95049.31;5059467;28;20613;-66
2023/08/20 11:16:54;;;;;;;4.18;3.78;;;;;;;29.16;33.19;95048.22;5059236;28;20199;-66
2023/08/20 11:19:29;;;;;;;4.60;4.18;;;;;;;29.30;32.76;95044.72;5076959;28;20177;-66
2023/08/20 11:22:05;;;;;;;6.05;4.10;;;;;;;29.31;32.35;95043.47;5059662;28;20297;-66
2023/08/20 11:24:33;;;;;;;4.18;3.60;;;;;;;29.32;32.81;95045.03;5059327;28;20196;-66
2023/08/20 11:27:03;;;;;;;4.93;4.20;;;;;;;29.25;33.15;95037.63;5059237;28;20556;-66
2023/08/20 11:29:31;;;;;;;4.03;3.72;;;;;;;29.07;33.22;95031.22;5076803;28;20272;-66
2023/08/20 11:32:03;;;;;;;4.18;3.88;;;;;;;29.11;32.74;95034.66;5059244;28;20211;-66
2023/08/20 11:34:37;;;;;;;6.80;4.45;;;;;;;29.23;31.96;95045.88;5059290;28;20569;-66
2023/08/20 11:37:07;;;;;;;4.47;4.07;;;;;;;29.23;32.08;95042.22;5058799;28;20192;-66
2023/08/20 11:39:40;;;;;;;4.03;3.72;;;;;;;29.14;32.56;95028.81;5055222;28;20310;-66
2023/08/20 11:42:08;;;;;;;4.65;3.97;;;;;;;29.09;32.99;95023.78;5056176;28;20218;-66
2023/08/20 11:44:44;;;;;;;4.18;3.88;;;;;;;29.09;32.81;95032.31;5055088;28;20572;-66
2023/08/20 11:47:15;;;;;;;4.35;3.95;;;;;;;29.22;33.19;95026.44;5055525;28;20318;-66